createdAt,value
2022-10-15T00:01:30.664Z,6.37
2022-10-15T00:05:32.527Z,7.30
2022-10-15T00:09:34.256Z,6.53
2022-10-15T00:13:36.322Z,6.97
2022-10-15T00:17:38.581Z,7.93
2022-10-15T00:21:40.325Z,7.93
2022-10-15T00:25:42.470Z,6.93
2022-10-15T00:29:44.166Z,7.22
2022-10-15T00:33:46.315Z,7.25
2022-10-15T00:37:48.007Z,7.62
2022-10-15T00:41:49.681Z,7.47
2022-10-15T00:45:51.366Z,7.95
2022-10-15T00:50:01.151Z,7.47
2022-10-15T00:54:03.224Z,7.65
2022-10-15T00:58:28.194Z,7.32
2022-10-15T01:02:29.868Z,6.82
2022-10-15T01:06:32.081Z,6.62
2022-10-15T01:10:58.752Z,5.97
2022-10-15T01:15:07.007Z,6.00
2022-10-15T01:19:21.624Z,5.53
2022-10-15T01:23:58.813Z,6.30
2022-10-15T01:28:03.285Z,6.80
2022-10-15T01:32:19.667Z,6.50
2022-10-15T01:36:47.887Z,6.80
2022-10-15T01:41:16.244Z,6.25
2022-10-15T01:45:28.197Z,6.20
2022-10-15T01:49:34.223Z,6.90
2022-10-15T01:53:37.542Z,6.03
2022-10-15T01:57:42.957Z,8.93
2022-10-15T02:01:44.681Z,5.90
2022-10-15T02:05:56.513Z,6.90
2022-10-15T02:10:03.951Z,5.90
2022-10-15T02:14:19.831Z,5.45
2022-10-15T02:18:28.404Z,6.10
2022-10-15T02:22:39.686Z,5.75
2022-10-15T02:26:43.704Z,6.20
2022-10-15T02:30:50.897Z,6.40
2022-10-15T02:34:54.384Z,5.72
2022-10-15T02:38:58.412Z,6.30
2022-10-15T02:43:00.346Z,5.35
2022-10-15T02:47:02.424Z,6.18
2022-10-15T02:51:04.908Z,6.18
2022-10-15T02:55:06.855Z,6.00
2022-10-15T02:59:08.676Z,6.43
2022-10-15T03:03:10.852Z,6.37
2022-10-15T03:07:12.714Z,6.47
2022-10-15T03:11:14.466Z,6.70
2022-10-15T03:15:16.238Z,6.80
2022-10-15T03:19:18.006Z,7.43
2022-10-15T03:23:19.667Z,7.25
2022-10-15T03:27:21.628Z,7.68
2022-10-15T03:31:23.520Z,7.30
2022-10-15T03:35:25.179Z,7.57
2022-10-15T03:39:26.894Z,7.80
2022-10-15T03:43:28.544Z,8.10
2022-10-15T03:47:30.198Z,8.75
2022-10-15T03:51:31.942Z,8.77
2022-10-15T03:55:33.641Z,8.70
2022-10-15T03:59:35.661Z,8.82
2022-10-15T04:03:37.675Z,7.95
2022-10-15T04:07:39.448Z,8.15
2022-10-15T04:11:41.475Z,10.68
2022-10-15T04:15:43.122Z,11.88
2022-10-15T04:19:44.888Z,12.52
2022-10-15T04:23:46.592Z,13.25
2022-10-15T04:27:48.260Z,13.50
2022-10-15T04:31:49.914Z,15.02
2022-10-15T04:36:01.464Z,19.35
2022-10-15T04:40:04.990Z,16.83
2022-10-15T04:44:06.676Z,15.95
2022-10-15T04:48:08.312Z,15.65
2022-10-15T04:52:10.038Z,16.50
2022-10-15T04:56:15.333Z,16.92
2022-10-15T05:00:17.161Z,16.62
2022-10-15T05:04:19.248Z,16.50
2022-10-15T05:08:20.893Z,16.27
2022-10-15T05:12:22.612Z,15.98
2022-10-15T05:16:26.925Z,17.00
2022-10-15T05:20:28.606Z,16.42
2022-10-15T05:24:30.299Z,16.48
2022-10-15T05:28:32.196Z,17.08
2022-10-15T05:32:33.914Z,16.48
2022-10-15T05:36:36.951Z,17.08
2022-10-15T05:40:38.573Z,15.85
2022-10-15T05:44:40.231Z,17.25
2022-10-15T05:48:41.928Z,18.55
2022-10-15T05:52:43.637Z,17.17
2022-10-15T05:56:45.343Z,17.45
2022-10-15T06:00:53.919Z,17.95
2022-10-15T06:04:56.271Z,18.10
2022-10-15T06:08:58.715Z,18.02
2022-10-15T06:13:00.377Z,18.42
2022-10-15T06:17:02.039Z,17.50
2022-10-15T06:21:03.816Z,17.90
2022-10-15T06:25:06.051Z,16.48
2022-10-15T06:29:08.071Z,17.65
2022-10-15T06:37:16.496Z,19.00
2022-10-15T06:41:18.356Z,19.50
2022-10-15T06:45:21.829Z,19.30
2022-10-15T06:49:23.752Z,20.37
2022-10-15T06:53:25.401Z,21.02
2022-10-15T06:57:30.301Z,20.52
2022-10-15T07:01:31.951Z,20.67
2022-10-15T07:05:34.384Z,20.37
2022-10-15T07:09:36.683Z,21.33
2022-10-15T07:13:38.859Z,20.30
2022-10-15T07:17:46.074Z,22.85
2022-10-15T07:21:48.065Z,21.85
2022-10-15T07:25:49.710Z,21.12
2022-10-15T07:29:51.423Z,20.75
2022-10-15T07:33:53.124Z,19.02
2022-10-15T07:37:55.135Z,21.20
2022-10-15T07:41:56.899Z,19.73
2022-10-15T07:45:58.606Z,21.27
2022-10-15T07:50:00.269Z,21.27
2022-10-15T07:54:01.966Z,22.73
2022-10-15T07:58:05.748Z,21.48
2022-10-15T08:02:11.698Z,20.42
2022-10-15T08:06:14.074Z,19.08
2022-10-15T08:10:15.984Z,20.40
2022-10-15T08:14:17.801Z,18.15
2022-10-15T08:18:19.473Z,17.58
2022-10-15T08:22:21.395Z,16.33
2022-10-15T08:26:23.395Z,16.27
2022-10-15T08:30:25.260Z,12.63
2022-10-15T08:34:27.315Z,12.23
2022-10-15T08:38:30.621Z,9.48
2022-10-15T08:42:37.295Z,8.73
2022-10-15T08:46:45.656Z,7.85
2022-10-15T08:51:01.869Z,7.40
2022-10-15T08:55:03.753Z,6.78
2022-10-15T08:59:17.631Z,6.68
2022-10-15T09:03:36.388Z,5.12
2022-10-15T09:07:59.868Z,5.53
2022-10-15T09:12:22.984Z,3.95
2022-10-15T09:16:35.420Z,3.33
2022-10-15T09:20:37.439Z,2.90
2022-10-15T09:24:39.128Z,2.42
2022-10-15T09:28:55.931Z,1.80
2022-10-15T09:32:57.604Z,1.50
2022-10-15T09:37:07.783Z,1.10
2022-10-15T09:41:29.613Z,1.20
2022-10-15T09:45:33.447Z,1.05
2022-10-15T09:49:36.481Z,0.88
2022-10-15T09:53:41.299Z,0.80
2022-10-15T09:57:48.633Z,0.77
2022-10-15T10:02:12.852Z,0.73
2022-10-15T10:06:15.325Z,0.68
2022-10-15T10:10:28.988Z,0.65
2022-10-15T10:14:30.625Z,0.70
2022-10-15T10:18:32.845Z,0.60
2022-10-15T10:23:13.140Z,0.70
2022-10-15T10:27:24.853Z,0.70
2022-10-15T10:31:42.709Z,0.55
2022-10-15T10:40:12.574Z,0.80
2022-10-15T10:44:41.406Z,0.60
2022-10-15T10:48:46.290Z,0.75
2022-10-15T10:52:48.134Z,0.70
2022-10-15T10:56:51.050Z,0.88
2022-10-15T11:00:55.316Z,0.80
2022-10-15T11:04:57.502Z,0.85
2022-10-15T11:09:05.037Z,0.60
2022-10-15T11:13:31.752Z,0.77
2022-10-15T11:17:48.402Z,0.90
2022-10-15T11:22:31.453Z,0.80
2022-10-15T11:26:59.031Z,0.60
2022-10-15T11:31:10.686Z,0.60
2022-10-15T11:35:20.208Z,0.60
2022-10-15T11:39:53.715Z,1.00
2022-10-15T11:44:05.728Z,1.00
2022-10-15T11:48:16.136Z,0.93
2022-10-15T11:52:39.696Z,1.02
2022-10-15T11:56:48.359Z,0.85
2022-10-15T12:00:56.360Z,1.00
2022-10-15T12:05:07.412Z,1.00
2022-10-15T12:09:16.775Z,0.80
2022-10-15T12:13:23.143Z,0.90
2022-10-15T12:17:50.281Z,0.83
2022-10-15T12:21:55.011Z,0.70
2022-10-15T12:25:56.703Z,0.93
2022-10-15T12:30:07.279Z,0.70
2022-10-15T12:34:29.469Z,0.70
2022-10-15T12:38:34.297Z,0.60
2022-10-15T12:42:39.421Z,0.77
2022-10-15T12:46:41.321Z,0.95
2022-10-15T12:50:43.466Z,1.00
2022-10-15T12:54:46.123Z,0.77
2022-10-15T12:58:52.837Z,0.82
2022-10-15T13:03:00.991Z,1.10
2022-10-15T13:07:04.301Z,0.80
2022-10-15T13:11:17.939Z,0.75
2022-10-15T13:15:22.001Z,0.60
2022-10-15T13:19:40.221Z,0.50
2022-10-15T13:23:47.168Z,0.43
2022-10-15T13:27:48.868Z,0.50
2022-10-15T13:31:53.147Z,1.00
2022-10-15T13:35:54.968Z,0.40
2022-10-15T13:39:57.147Z,0.80
2022-10-15T13:44:00.886Z,0.40
2022-10-15T13:48:02.758Z,0.50
2022-10-15T13:52:04.568Z,0.50
2022-10-15T13:56:31.022Z,0.60
2022-10-15T14:00:35.390Z,0.43
2022-10-15T14:04:37.517Z,0.50
2022-10-15T14:08:39.180Z,0.50
2022-10-15T14:12:40.885Z,0.50
2022-10-15T14:16:47.808Z,0.40
2022-10-15T14:20:49.917Z,0.43
2022-10-15T14:24:53.571Z,0.50
2022-10-15T14:28:57.073Z,0.40
2022-10-15T14:32:58.967Z,0.70
2022-10-15T14:37:01.870Z,0.68
2022-10-15T14:41:23.879Z,1.10
2022-10-15T14:45:28.169Z,0.70
2022-10-15T14:49:33.079Z,0.60
2022-10-15T14:53:37.925Z,0.60
2022-10-15T14:57:42.184Z,0.82
2022-10-15T15:02:02.577Z,1.45
2022-10-15T15:06:05.130Z,1.30
2022-10-15T15:10:08.971Z,1.10
2022-10-15T15:14:23.793Z,0.82
2022-10-15T15:18:25.488Z,0.98
2022-10-15T15:22:32.390Z,0.70
2022-10-15T15:26:34.021Z,0.77
2022-10-15T15:30:35.667Z,0.90
2022-10-15T15:34:37.404Z,1.20
2022-10-15T15:38:39.433Z,1.00
2022-10-15T15:42:41.561Z,0.90
2022-10-15T15:46:43.457Z,1.83
2022-10-15T15:50:46.457Z,1.50
2022-10-15T15:54:48.160Z,1.08
2022-10-15T15:58:51.022Z,1.83
2022-10-15T16:02:55.484Z,1.33
2022-10-15T16:06:59.529Z,1.60
2022-10-15T16:11:02.425Z,1.50
2022-10-15T16:15:06.170Z,2.00
2022-10-15T16:19:09.479Z,1.65
2022-10-15T16:23:11.175Z,1.92
2022-10-15T16:27:12.920Z,1.87
2022-10-15T16:31:24.191Z,3.00
2022-10-15T16:35:28.019Z,1.70
2022-10-15T16:39:29.788Z,1.70
2022-10-15T16:43:31.482Z,1.67
2022-10-15T16:47:33.149Z,2.45
2022-10-15T16:51:36.453Z,2.50
2022-10-15T16:55:40.257Z,2.78
2022-10-15T16:59:42.015Z,2.50
2022-10-15T17:03:45.316Z,2.60
2022-10-15T17:07:46.962Z,2.72
2022-10-15T17:11:48.576Z,2.60
2022-10-15T17:15:50.245Z,2.70
2022-10-15T17:19:51.984Z,2.87
2022-10-15T17:23:55.668Z,3.25
2022-10-15T17:27:57.369Z,2.92
2022-10-15T17:31:59.136Z,2.85
2022-10-15T17:36:10.057Z,2.97
2022-10-15T17:40:12.185Z,2.83
2022-10-15T17:44:14.089Z,2.65
2022-10-15T17:48:15.859Z,3.33
2022-10-15T17:52:17.519Z,2.70
2022-10-15T17:56:22.369Z,2.80
2022-10-15T18:00:24.255Z,2.60
2022-10-15T18:04:27.212Z,2.80
2022-10-15T18:08:28.893Z,3.42
2022-10-15T18:12:30.529Z,2.90
2022-10-15T18:16:32.603Z,4.10
2022-10-15T18:20:34.284Z,3.05
2022-10-15T18:24:35.961Z,2.40
2022-10-15T18:28:37.828Z,2.05
2022-10-15T18:32:39.549Z,2.00
2022-10-15T18:36:43.266Z,2.08
2022-10-15T18:40:44.947Z,2.40
2022-10-15T18:44:46.571Z,2.00
2022-10-15T18:48:49.006Z,2.30
2022-10-15T18:52:50.670Z,2.22
2022-10-15T18:56:52.718Z,1.85
2022-10-15T19:00:54.454Z,2.47
2022-10-15T19:04:56.180Z,2.12
2022-10-15T19:08:59.213Z,2.80
2022-10-15T19:13:00.944Z,2.22
2022-10-15T19:17:02.615Z,2.47
2022-10-15T19:21:05.523Z,2.55
2022-10-15T19:25:07.644Z,2.85
2022-10-15T19:29:10.040Z,2.70
2022-10-15T19:33:11.693Z,2.50
2022-10-15T19:37:13.335Z,2.72
2022-10-15T19:41:15.076Z,2.30
2022-10-15T19:45:16.785Z,2.33
2022-10-15T19:49:18.555Z,2.22
2022-10-15T19:53:20.231Z,2.70
2022-10-15T19:57:22.405Z,2.65
2022-10-15T20:01:25.167Z,2.40
2022-10-15T20:05:26.986Z,2.60
2022-10-15T20:09:28.659Z,2.90
2022-10-15T20:13:30.325Z,3.00
2022-10-15T20:17:32.065Z,2.92
2022-10-15T20:21:33.831Z,3.80
2022-10-15T20:25:38.262Z,4.60
2022-10-15T20:29:39.883Z,4.68
2022-10-15T20:33:41.639Z,4.70
2022-10-15T20:37:43.430Z,3.72
2022-10-15T20:41:45.146Z,4.20
2022-10-15T20:45:46.849Z,5.40
2022-10-15T20:49:50.678Z,4.47
2022-10-15T20:53:52.716Z,4.20
2022-10-15T20:57:55.049Z,3.92
2022-10-15T21:01:56.835Z,4.32
2022-10-15T21:05:58.575Z,4.15
2022-10-15T21:10:00.306Z,3.90
2022-10-15T21:14:01.947Z,4.97
2022-10-15T21:18:03.790Z,4.32
2022-10-15T21:22:05.555Z,4.53
2022-10-15T21:26:12.478Z,4.57
2022-10-15T21:30:14.210Z,4.45
2022-10-15T21:34:16.090Z,4.90
2022-10-15T21:38:17.727Z,5.37
2022-10-15T21:42:19.387Z,4.87
2022-10-15T21:46:21.051Z,4.82
2022-10-15T21:50:22.756Z,4.57
2022-10-15T21:54:24.493Z,4.53
2022-10-15T21:58:26.754Z,4.18
2022-10-15T22:02:28.470Z,4.25
2022-10-15T22:06:30.412Z,4.07
2022-10-15T22:10:32.080Z,4.18
2022-10-15T22:14:34.720Z,3.85
2022-10-15T22:18:37.248Z,4.30
2022-10-15T22:22:38.919Z,4.05
2022-10-15T22:26:52.058Z,3.80
2022-10-15T22:30:53.759Z,4.10
2022-10-15T22:34:55.427Z,4.22
2022-10-15T22:39:01.607Z,3.92
2022-10-15T22:43:03.703Z,3.92
2022-10-15T22:47:05.514Z,3.50
2022-10-15T22:51:10.330Z,3.45
2022-10-15T22:55:11.971Z,3.10
2022-10-15T22:59:14.238Z,3.53
2022-10-15T23:03:15.992Z,3.60
2022-10-15T23:07:17.653Z,3.62
2022-10-15T23:11:23.573Z,3.58
2022-10-15T23:15:25.267Z,3.95
2022-10-15T23:19:26.916Z,4.30
2022-10-15T23:23:28.585Z,3.62
2022-10-15T23:27:30.493Z,3.53
2022-10-15T23:31:35.037Z,3.35
2022-10-15T23:39:43.412Z,3.00
2022-10-15T23:43:45.169Z,3.60
2022-10-15T23:47:46.831Z,2.92
2022-10-15T23:51:48.540Z,2.78
2022-10-15T23:55:50.254Z,3.17
2022-10-15T23:59:51.884Z,2.37
